NAY8WQ GCRR-GCLP
Flight info
| Callsign | NAY8WQ |
|---|---|
| Flight time | N/A |
| Altitude | 12000 |
| Route | DCT |
| Aircraft | AT76/M-SDFGIRY/S |
Departure
| Time | 2026-05-04 13:08 |
|---|---|
| Airport | César Manrique-Lanzarote Airport (GCRR) |
Arrival
| Time | N/A |
|---|---|
| Airport | Gran Canaria Airport (GCLP) |
| Time | Latitude | Longitude | Altitude | Speed | Heading |
|---|---|---|---|---|---|
| 2026-05-04 12:31 | 28.95301 | -13.60538 | 47 ft | 0 kts | 296° |
| 2026-05-04 13:01 | 28.95303 | -13.60541 | 46 ft | 2 kts | 311° |
| 2026-05-04 13:01 | 28.95321 | -13.60509 | 46 ft | 7 kts | 108° |
| 2026-05-04 13:02 | 28.95298 | -13.60460 | 47 ft | 5 kts | 130° |
| 2026-05-04 13:02 | 28.95243 | -13.60477 | 47 ft | 14 kts | 206° |
| 2026-05-04 13:02 | 28.95173 | -13.60517 | 47 ft | 6 kts | 206° |
| 2026-05-04 13:02 | 28.95136 | -13.60499 | 44 ft | 8 kts | 122° |
| 2026-05-04 13:03 | 28.95103 | -13.60437 | 47 ft | 11 kts | 135° |
| 2026-05-04 13:03 | 28.95032 | -13.60449 | 47 ft | 15 kts | 207° |
| 2026-05-04 13:03 | 28.94930 | -13.60508 | 45 ft | 18 kts | 207° |
| 2026-05-04 13:03 | 28.94834 | -13.60565 | 47 ft | 14 kts | 207° |
| 2026-05-04 13:04 | 28.94737 | -13.60620 | 47 ft | 17 kts | 205° |
| 2026-05-04 13:04 | 28.94623 | -13.60686 | 42 ft | 21 kts | 206° |
| 2026-05-04 13:04 | 28.94481 | -13.60767 | 31 ft | 25 kts | 207° |
| 2026-05-04 13:04 | 28.94325 | -13.60857 | 29 ft | 25 kts | 207° |
| 2026-05-04 13:05 | 28.94178 | -13.60941 | 24 ft | 24 kts | 205° |
| 2026-05-04 13:05 | 28.94033 | -13.61027 | 22 ft | 23 kts | 207° |
| 2026-05-04 13:05 | 28.93890 | -13.61110 | 21 ft | 23 kts | 207° |
| 2026-05-04 13:05 | 28.93748 | -13.61192 | 21 ft | 22 kts | 207° |
| 2026-05-04 13:06 | 28.93668 | -13.61220 | 20 ft | 10 kts | 161° |
| 2026-05-04 13:06 | 28.93641 | -13.61185 | 20 ft | 4 kts | 118° |
| 2026-05-04 13:06 | 28.93623 | -13.61143 | 22 ft | 12 kts | 116° |
| 2026-05-04 13:06 | 28.93613 | -13.61115 | 20 ft | 3 kts | 104° |
| 2026-05-04 13:07 | 28.93620 | -13.61064 | 21 ft | 9 kts | 58° |
| 2026-05-04 13:07 | 28.93751 | -13.60981 | 22 ft | 48 kts | 28° |
| 2026-05-04 13:07 | 28.94229 | -13.60706 | 28 ft | 102 kts | 27° |
| 2026-05-04 13:07 | 28.94962 | -13.60340 | 311 ft | 119 kts | 30° |
| 2026-05-04 13:08 | 28.95756 | -13.59972 | 727 ft | 130 kts | 33° |
| 2026-05-04 13:08 | 28.96554 | -13.59414 | 1134 ft | 143 kts | 41° |
| 2026-05-04 13:08 | 28.97348 | -13.58667 | 1561 ft | 151 kts | 43° |
| 2026-05-04 13:08 | 28.98154 | -13.57852 | 2023 ft | 157 kts | 41° |
| 2026-05-04 13:09 | 28.99029 | -13.57024 | 2317 ft | 173 kts | 38° |
| 2026-05-04 13:09 | 29.00020 | -13.56151 | 2675 ft | 185 kts | 37° |
| 2026-05-04 13:09 | 29.01029 | -13.55220 | 3133 ft | 189 kts | 44° |
| 2026-05-04 13:09 | 29.01902 | -13.54068 | 3595 ft | 195 kts | 49° |
| 2026-05-04 13:10 | 29.02750 | -13.52836 | 4035 ft | 199 kts | 50° |
| 2026-05-04 13:10 | 29.03603 | -13.51571 | 4451 ft | 203 kts | 50° |
| 2026-05-04 13:10 | 29.04474 | -13.50286 | 4863 ft | 206 kts | 48° |
| 2026-05-04 13:10 | 29.05372 | -13.48994 | 5253 ft | 209 kts | 49° |
| 2026-05-04 13:11 | 29.06291 | -13.47695 | 5712 ft | 212 kts | 47° |
| 2026-05-04 13:11 | 29.07232 | -13.46388 | 6153 ft | 214 kts | 47° |
| 2026-05-04 13:11 | 29.08181 | -13.45069 | 6576 ft | 216 kts | 47° |
| 2026-05-04 13:11 | 29.09177 | -13.43778 | 6952 ft | 215 kts | 34° |
| 2026-05-04 13:12 | 29.10534 | -13.43241 | 7277 ft | 206 kts | 352° |
| 2026-05-04 13:12 | 29.11795 | -13.43852 | 7627 ft | 197 kts | 311° |
| 2026-05-04 13:12 | 29.12477 | -13.45163 | 8020 ft | 191 kts | 294° |
| 2026-05-04 13:12 | 29.12747 | -13.46618 | 8398 ft | 192 kts | 260° |